Terminal Aerodrome Forecast
Issued by NWS

Home | Current Version | Previous Version | Text Only | Print | Product List | Glossary On
Versions: 1 2 3 4 5 6 7 8 9 10 11 12 13 14 15 16 17 18
000
FTUS43 KAPX 152300
TAFPLN
TAF
KPLN 152320Z 1600/1624 30005KT P6SM SCT050
     FM160200 00000KT P6SM BKN040
     FM161000 00000KT P6SM SCT035
     FM161600 26009G15KT P6SM SCT150=

USA.gov is the U.S. government's official web portal to all federal, state and local government web resources and services.